Time,TemperatureF,DewpointF,PressureIn,WindDirection,WindDirectionDegrees,WindSpeedMPH,WindSpeedGustMPH,Humidity,HourlyPrecipIn,Conditions,Clouds,dailyrainin,SoftwareType,DateUTC
2013-07-13 00:00:00,55.3,49.9,30.22,WNW,289,0.0,0.0,82,0.00,,,0.00,Wunderground v.1.15,2013-07-13 04:00:00,
2013-07-13 00:10:00,54.6,49.5,30.22,WNW,289,0.0,0.0,83,0.00,,,0.00,Wunderground v.1.15,2013-07-13 04:10:00,
2013-07-13 00:20:00,54.2,49.5,30.21,WNW,288,0.0,0.0,84,0.00,,,0.00,Wunderground v.1.15,2013-07-13 04:20:00,
2013-07-13 00:30:00,53.8,49.4,30.23,WNW,289,0.0,0.0,85,0.00,,,0.00,Wunderground v.1.15,2013-07-13 04:30:00,
2013-07-13 00:40:00,53.4,49.3,30.23,WNW,289,0.0,0.0,86,0.00,,,0.00,Wunderground v.1.15,2013-07-13 04:40:00,
2013-07-13 00:50:00,53.2,49.4,30.23,WNW,288,0.0,0.0,87,0.00,,,0.00,Wunderground v.1.15,2013-07-13 04:50:00,
2013-07-13 01:00:00,52.8,49.0,30.23,WNW,288,0.0,0.0,87,0.00,,,0.00,Wunderground v.1.15,2013-07-13 05:00:00,
2013-07-13 01:10:00,52.4,48.9,30.23,WNW,289,0.0,0.0,88,0.00,,,0.00,Wunderground v.1.15,2013-07-13 05:10:00,
2013-07-13 01:20:00,52.1,49.0,30.23,WNW,289,0.0,0.0,89,0.00,,,0.00,Wunderground v.1.15,2013-07-13 05:20:00,
2013-07-13 01:30:00,51.8,48.7,30.24,WNW,289,0.0,0.0,89,0.00,,,0.00,Wunderground v.1.15,2013-07-13 05:30:00,
2013-07-13 01:40:00,51.5,48.7,30.24,WNW,288,0.0,0.0,90,0.00,,,0.00,Wunderground v.1.15,2013-07-13 05:40:00,
2013-07-13 01:50:00,51.0,48.5,30.24,WNW,288,0.0,0.0,91,0.00,,,0.00,Wunderground v.1.15,2013-07-13 05:50:00,
2013-07-13 02:00:00,50.6,48.4,30.24,WNW,289,0.0,0.0,92,0.00,,,0.00,Wunderground v.1.15,2013-07-13 06:00:00,
2013-07-13 02:10:00,50.3,48.1,30.24,WNW,289,0.0,0.0,92,0.00,,,0.00,Wunderground v.1.15,2013-07-13 06:10:00,
2013-07-13 02:20:00,50.3,48.4,30.24,WNW,289,0.0,0.0,93,0.00,,,0.00,Wunderground v.1.15,2013-07-13 06:20:00,
2013-07-13 02:30:00,50.4,48.2,30.25,WNW,289,0.0,0.0,92,0.00,,,0.00,Wunderground v.1.15,2013-07-13 06:30:00,
2013-07-13 02:40:00,50.6,48.4,30.25,WNW,289,0.0,0.0,92,0.00,,,0.00,Wunderground v.1.15,2013-07-13 06:40:00,
2013-07-13 02:50:00,50.6,48.7,30.25,WNW,289,0.0,0.0,93,0.00,,,0.00,Wunderground v.1.15,2013-07-13 06:50:00,
2013-07-13 03:00:00,50.3,48.1,30.24,WNW,289,0.0,0.0,92,0.00,,,0.00,Wunderground v.1.15,2013-07-13 07:00:00,
2013-07-13 03:10:00,50.1,47.9,30.25,WNW,289,0.0,0.0,92,0.00,,,0.00,Wunderground v.1.15,2013-07-13 07:10:00,
2013-07-13 03:20:00,49.7,47.8,30.25,WNW,288,0.0,0.0,93,0.00,,,0.00,Wunderground v.1.15,2013-07-13 07:20:00,
2013-07-13 03:30:00,49.6,47.7,30.25,WNW,289,0.0,0.0,93,0.00,,,0.00,Wunderground v.1.15,2013-07-13 07:30:00,
2013-07-13 03:40:00,49.4,47.5,30.24,WNW,288,0.0,0.0,93,0.00,,,0.00,Wunderground v.1.15,2013-07-13 07:40:00,
2013-07-13 03:50:00,49.2,47.3,30.24,WNW,289,0.0,0.0,93,0.00,,,0.00,Wunderground v.1.15,2013-07-13 07:50:00,
2013-07-13 04:00:00,48.8,47.2,30.24,WNW,288,0.0,0.0,94,0.00,,,0.00,Wunderground v.1.15,2013-07-13 08:00:00,
2013-07-13 04:10:00,48.6,47.0,30.24,WNW,289,0.0,0.0,94,0.00,,,0.00,Wunderground v.1.15,2013-07-13 08:10:00,
2013-07-13 04:20:00,48.7,47.3,30.24,WNW,289,0.0,0.0,95,0.00,,,0.00,Wunderground v.1.15,2013-07-13 08:20:00,
2013-07-13 04:30:00,48.4,46.8,30.26,WNW,289,0.0,0.0,94,0.00,,,0.00,Wunderground v.1.15,2013-07-13 08:30:00,
2013-07-13 04:40:00,48.6,47.2,30.25,WNW,289,0.0,0.0,95,0.00,,,0.00,Wunderground v.1.15,2013-07-13 08:40:00,
2013-07-13 04:50:00,48.6,47.0,30.26,WNW,288,0.0,0.0,94,0.00,,,0.00,Wunderground v.1.15,2013-07-13 08:50:00,
2013-07-13 05:00:00,48.3,46.7,30.26,WNW,288,0.0,0.0,94,0.00,,,0.00,Wunderground v.1.15,2013-07-13 09:00:00,
2013-07-13 05:10:00,47.8,46.2,30.27,WNW,288,0.0,0.0,94,0.00,,,0.00,Wunderground v.1.15,2013-07-13 09:10:00,
2013-07-13 05:20:00,47.4,45.8,30.26,WNW,288,0.0,0.0,94,0.00,,,0.00,Wunderground v.1.15,2013-07-13 09:20:00,
2013-07-13 05:30:00,47.2,45.6,30.27,WNW,289,0.0,0.0,94,0.00,,,0.00,Wunderground v.1.15,2013-07-13 09:30:00,
2013-07-13 05:40:00,47.0,45.6,30.27,WNW,289,0.0,0.0,95,0.00,,,0.00,Wunderground v.1.15,2013-07-13 09:40:00,
2013-07-13 05:50:00,47.4,46.3,30.27,WNW,289,0.0,0.0,96,0.00,,,0.00,Wunderground v.1.15,2013-07-13 09:50:00,
2013-07-13 06:00:00,48.0,46.9,30.27,WNW,288,0.0,0.0,96,0.00,,,0.00,Wunderground v.1.15,2013-07-13 10:00:00,
2013-07-13 06:10:00,48.3,46.9,30.28,WNW,289,0.0,0.0,95,0.00,,,0.00,Wunderground v.1.15,2013-07-13 10:10:00,
2013-07-13 06:20:00,48.7,47.6,30.28,WNW,289,0.0,0.0,96,0.00,,,0.00,Wunderground v.1.15,2013-07-13 10:20:00,
2013-07-13 06:30:00,50.0,48.9,30.28,WNW,289,0.0,0.0,96,0.00,,,0.00,Wunderground v.1.15,2013-07-13 10:30:00,
2013-07-13 06:40:00,50.5,49.1,30.29,WNW,289,0.0,0.0,95,0.00,,,0.00,Wunderground v.1.15,2013-07-13 10:40:00,
2013-07-13 06:50:00,51.0,49.6,30.29,WNW,289,0.0,0.0,95,0.00,,,0.00,Wunderground v.1.15,2013-07-13 10:50:00,
2013-07-13 07:00:00,52.0,50.6,30.28,WNW,289,0.0,0.0,95,0.00,,,0.00,Wunderground v.1.15,2013-07-13 11:00:00,
2013-07-13 07:10:00,53.2,51.5,30.29,WNW,289,0.0,0.0,94,0.00,,,0.00,Wunderground v.1.15,2013-07-13 11:10:00,
2013-07-13 07:20:00,54.6,52.3,30.29,WNW,289,0.0,0.0,92,0.00,,,0.00,Wunderground v.1.15,2013-07-13 11:20:00,
2013-07-13 07:30:00,55.4,52.8,30.29,WNW,289,0.0,0.0,91,0.00,,,0.00,Wunderground v.1.15,2013-07-13 11:30:00,
2013-07-13 07:40:00,56.2,52.7,30.29,WNW,289,0.0,0.0,88,0.00,,,0.00,Wunderground v.1.15,2013-07-13 11:40:00,
2013-07-13 07:50:00,57.5,54.3,30.29,WNW,289,0.0,0.0,89,0.00,,,0.00,Wunderground v.1.15,2013-07-13 11:50:00,
2013-07-13 08:00:00,59.0,54.8,30.29,WNW,289,0.0,0.0,86,0.00,,,0.00,Wunderground v.1.15,2013-07-13 12:00:00,
2013-07-13 08:10:00,61.1,56.6,30.29,WNW,289,0.0,0.0,85,0.00,,,0.00,Wunderground v.1.15,2013-07-13 12:10:00,
2013-07-13 08:20:00,62.8,56.2,30.29,WNW,288,0.0,0.0,79,0.00,,,0.00,Wunderground v.1.15,2013-07-13 12:20:00,
2013-07-13 08:30:00,63.7,57.4,30.29,WNW,300,0.0,0.0,80,0.00,,,0.00,Wunderground v.1.15,2013-07-13 12:30:00,
2013-07-13 08:40:00,64.5,57.5,30.29,NW,307,0.0,0.0,78,0.00,,,0.00,Wunderground v.1.15,2013-07-13 12:40:00,
2013-07-13 08:50:00,65.8,59.1,30.29,NW,313,0.0,0.0,79,0.00,,,0.00,Wunderground v.1.15,2013-07-13 12:50:00,
2013-07-13 09:00:00,67.5,59.3,30.29,WNW,301,0.0,0.0,75,0.00,,,0.00,Wunderground v.1.15,2013-07-13 13:00:00,
2013-07-13 09:10:00,68.5,59.1,30.29,WNW,287,0.0,0.0,72,0.00,,,0.00,Wunderground v.1.15,2013-07-13 13:10:00,
2013-07-13 09:20:00,69.1,59.3,30.29,SW,215,1.0,1.0,71,0.00,,,0.00,Wunderground v.1.15,2013-07-13 13:20:00,
2013-07-13 09:30:00,69.8,58.8,30.29,WSW,237,2.0,2.0,68,0.00,,,0.00,Wunderground v.1.15,2013-07-13 13:30:00,
2013-07-13 09:40:00,70.6,58.3,30.28,SW,230,1.0,1.0,65,0.00,,,0.00,Wunderground v.1.15,2013-07-13 13:40:00,
2013-07-13 09:50:00,71.6,57.4,30.28,SW,214,1.0,3.0,61,0.00,,,0.00,Wunderground v.1.15,2013-07-13 13:50:00,
2013-07-13 10:00:00,72.6,57.4,30.28,SW,226,2.0,2.0,59,0.00,,,0.00,Wunderground v.1.15,2013-07-13 14:00:00,
2013-07-13 10:10:00,73.8,56.6,30.27,SSW,210,1.0,3.0,55,0.00,,,0.00,Wunderground v.1.15,2013-07-13 14:10:00,
2013-07-13 10:20:00,74.9,56.6,30.27,SW,218,2.0,2.0,53,0.00,,,0.00,Wunderground v.1.15,2013-07-13 14:20:00,
2013-07-13 10:30:00,75.4,56.0,30.27,West,275,1.0,1.0,51,0.00,,,0.00,Wunderground v.1.15,2013-07-13 14:30:00,
2013-07-13 10:40:00,76.2,53.3,30.27,WNW,282,3.0,5.0,45,0.00,,,0.00,Wunderground v.1.15,2013-07-13 14:40:00,
2013-07-13 10:50:00,77.3,58.3,30.27,SSW,207,3.0,5.0,52,0.00,,,0.00,Wunderground v.1.15,2013-07-13 14:50:00,
2013-07-13 11:00:00,77.3,56.1,30.27,SW,220,4.0,4.0,48,0.00,,,0.00,Wunderground v.1.15,2013-07-13 15:00:00,
2013-07-13 11:10:00,77.5,55.7,30.26,SW,227,2.0,5.0,47,0.00,,,0.00,Wunderground v.1.15,2013-07-13 15:10:00,
2013-07-13 11:20:00,77.8,54.1,30.26,SW,235,3.0,3.0,44,0.00,,,0.00,Wunderground v.1.15,2013-07-13 15:20:00,
2013-07-13 11:30:00,78.5,52.8,30.26,SSW,213,3.0,3.0,41,0.00,,,0.00,Wunderground v.1.15,2013-07-13 15:30:00,
2013-07-13 11:40:00,78.9,52.5,30.25,SW,219,2.0,2.0,40,0.00,,,0.00,Wunderground v.1.15,2013-07-13 15:40:00,
2013-07-13 11:50:00,79.4,53.6,30.25,WSW,253,2.0,2.0,41,0.00,,,0.00,Wunderground v.1.15,2013-07-13 15:50:00,
2013-07-13 12:00:00,80.1,54.3,30.25,WSW,249,1.0,2.0,41,0.00,,,0.00,Wunderground v.1.15,2013-07-13 16:00:00,
2013-07-13 12:10:00,80.3,53.8,30.25,SSW,194,3.0,7.0,40,0.00,,,0.00,Wunderground v.1.15,2013-07-13 16:10:00,
2013-07-13 12:20:00,80.5,55.9,30.24,SSW,200,2.0,2.0,43,0.00,,,0.00,Wunderground v.1.15,2013-07-13 16:20:00,
2013-07-13 12:30:00,81.2,53.9,30.23,SSW,213,2.0,2.0,39,0.00,,,0.00,Wunderground v.1.15,2013-07-13 16:30:00,
2013-07-13 12:40:00,81.3,55.3,30.23,SSW,200,3.0,4.0,41,0.00,,,0.00,Wunderground v.1.15,2013-07-13 16:40:00,
2013-07-13 12:50:00,81.6,54.2,30.24,WSW,237,2.0,2.0,39,0.00,,,0.00,Wunderground v.1.15,2013-07-13 16:50:00,
2013-07-13 13:00:00,81.1,54.5,30.23,WSW,248,2.0,2.0,40,0.00,,,0.00,Wunderground v.1.15,2013-07-13 17:00:00,
2013-07-13 13:10:00,81.9,54.5,30.23,SSE,167,2.0,2.0,39,0.00,,,0.00,Wunderground v.1.15,2013-07-13 17:10:00,
2013-07-13 13:20:00,82.0,53.2,30.23,WSW,238,2.0,2.0,37,0.00,,,0.00,Wunderground v.1.15,2013-07-13 17:20:00,
2013-07-13 13:30:00,82.9,53.2,30.22,SSE,150,0.0,0.0,36,0.00,,,0.00,Wunderground v.1.15,2013-07-13 17:30:00,
2013-07-13 13:40:00,83.6,53.8,30.22,West,259,3.0,3.0,36,0.00,,,0.00,Wunderground v.1.15,2013-07-13 17:40:00,
2013-07-13 13:50:00,84.2,52.8,30.22,SW,215,1.0,1.0,34,0.00,,,0.00,Wunderground v.1.15,2013-07-13 17:50:00,
2013-07-13 14:00:00,83.4,52.1,30.21,WSW,242,2.0,2.0,34,0.00,,,0.00,Wunderground v.1.15,2013-07-13 18:00:00,
2013-07-13 14:10:00,83.2,53.5,30.21,SW,228,1.0,5.0,36,0.00,,,0.00,Wunderground v.1.15,2013-07-13 18:10:00,
2013-07-13 14:20:00,83.8,54.0,30.21,SW,215,1.0,7.0,36,0.00,,,0.00,Wunderground v.1.15,2013-07-13 18:20:00,
2013-07-13 14:30:00,84.6,53.9,30.22,WSW,246,2.0,5.0,35,0.00,,,0.00,Wunderground v.1.15,2013-07-13 18:30:00,
2013-07-13 14:40:00,84.6,52.3,30.21,WSW,243,2.0,2.0,33,0.00,,,0.00,Wunderground v.1.15,2013-07-13 18:40:00,
2013-07-13 14:50:00,84.8,52.5,30.21,SSE,167,2.0,2.0,33,0.00,,,0.00,Wunderground v.1.15,2013-07-13 18:50:00,
2013-07-13 15:00:00,85.3,51.2,30.21,West,267,2.0,2.0,31,0.00,,,0.00,Wunderground v.1.15,2013-07-13 19:00:00,
2013-07-13 15:10:00,85.0,50.1,30.20,SSW,200,3.0,3.0,30,0.00,,,0.00,Wunderground v.1.15,2013-07-13 19:10:00,
2013-07-13 15:20:00,84.8,52.5,30.20,SW,225,2.0,2.0,33,0.00,,,0.00,Wunderground v.1.15,2013-07-13 19:20:00,
2013-07-13 15:30:00,85.7,49.8,30.20,WNW,284,2.0,4.0,29,0.00,,,0.00,Wunderground v.1.15,2013-07-13 19:30:00,
2013-07-13 15:40:00,86.0,49.1,30.20,SW,227,3.0,4.0,28,0.00,,,0.00,Wunderground v.1.15,2013-07-13 19:40:00,
2013-07-13 15:50:00,86.1,50.1,30.19,West,268,2.0,2.0,29,0.00,,,0.00,Wunderground v.1.15,2013-07-13 19:50:00,
2013-07-13 16:00:00,86.1,50.1,30.19,SW,218,2.0,2.0,29,0.00,,,0.00,Wunderground v.1.15,2013-07-13 20:00:00,
2013-07-13 16:10:00,85.8,50.8,30.19,WSW,241,3.0,3.0,30,0.00,,,0.00,Wunderground v.1.15,2013-07-13 20:10:00,
2013-07-13 16:20:00,85.9,49.0,30.18,SW,217,4.0,6.0,28,0.00,,,0.00,Wunderground v.1.15,2013-07-13 20:20:00,
2013-07-13 16:30:00,85.9,51.8,30.18,SW,215,4.0,12.0,31,0.00,,,0.00,Wunderground v.1.15,2013-07-13 20:30:00,
2013-07-13 16:40:00,85.8,53.4,30.19,SW,236,3.0,3.0,33,0.00,,,0.00,Wunderground v.1.15,2013-07-13 20:40:00,
2013-07-13 16:50:00,85.7,50.7,30.19,SW,215,3.0,3.0,30,0.00,,,0.00,Wunderground v.1.15,2013-07-13 20:50:00,
2013-07-13 17:00:00,85.8,53.4,30.18,WSW,250,2.0,2.0,33,0.00,,,0.00,Wunderground v.1.15,2013-07-13 21:00:00,
2013-07-13 17:10:00,86.3,53.0,30.18,SW,229,1.0,2.0,32,0.00,,,0.00,Wunderground v.1.15,2013-07-13 21:10:00,
2013-07-13 17:20:00,86.0,52.7,30.18,WSW,242,2.0,5.0,32,0.00,,,0.00,Wunderground v.1.15,2013-07-13 21:20:00,
2013-07-13 17:30:00,85.9,55.1,30.18,WSW,252,1.0,1.0,35,0.00,,,0.00,Wunderground v.1.15,2013-07-13 21:30:00,
2013-07-13 17:40:00,86.0,52.7,30.17,WNW,286,3.0,3.0,32,0.00,,,0.00,Wunderground v.1.15,2013-07-13 21:40:00,
2013-07-13 17:50:00,86.0,54.4,30.17,SW,219,2.0,2.0,34,0.00,,,0.00,Wunderground v.1.15,2013-07-13 21:50:00,
2013-07-13 18:10:00,85.2,53.7,30.17,West,266,1.0,1.0,34,0.00,,,0.00,Wunderground v.1.15,2013-07-13 22:10:00,
2013-07-13 18:20:00,84.9,53.4,30.17,WSW,248,1.0,1.0,34,0.00,,,0.00,Wunderground v.1.15,2013-07-13 22:20:00,
2013-07-13 18:30:00,85.4,53.8,30.17,West,268,1.0,1.0,34,0.00,,,0.00,Wunderground v.1.15,2013-07-13 22:30:00,
2013-07-13 18:40:00,84.9,52.6,30.17,West,277,1.0,1.0,33,0.00,,,0.00,Wunderground v.1.15,2013-07-13 22:40:00,
2013-07-13 18:50:00,84.3,55.9,30.18,West,278,0.0,2.0,38,0.00,,,0.00,Wunderground v.1.15,2013-07-13 22:50:00,
2013-07-13 19:00:00,83.5,59.9,30.18,West,277,0.0,0.0,45,0.00,,,0.00,Wunderground v.1.15,2013-07-13 23:00:00,
2013-07-13 19:10:00,82.9,59.4,30.18,West,277,0.0,0.0,45,0.00,,,0.00,Wunderground v.1.15,2013-07-13 23:10:00,
2013-07-13 19:20:00,81.5,61.1,30.19,West,278,0.0,0.0,50,0.00,,,0.00,Wunderground v.1.15,2013-07-13 23:20:00,
2013-07-13 19:30:00,80.2,58.1,30.19,West,278,0.0,0.0,47,0.00,,,0.00,Wunderground v.1.15,2013-07-13 23:30:00,
2013-07-13 19:40:00,79.4,58.0,30.18,West,277,0.0,0.0,48,0.00,,,0.00,Wunderground v.1.15,2013-07-13 23:40:00,
2013-07-13 19:50:00,78.4,58.2,30.18,West,277,0.0,0.0,50,0.00,,,0.00,Wunderground v.1.15,2013-07-13 23:50:00,
2013-07-13 20:00:00,77.3,57.2,30.18,West,277,0.0,0.0,50,0.00,,,0.00,Wunderground v.1.15,2013-07-14 00:00:00,
2013-07-13 20:10:00,75.9,57.0,30.18,West,277,0.0,0.0,52,0.00,,,0.00,Wunderground v.1.15,2013-07-14 00:10:00,
2013-07-13 20:20:00,73.8,57.1,30.18,SW,234,1.0,3.0,56,0.00,,,0.00,Wunderground v.1.15,2013-07-14 00:20:00,
2013-07-13 20:30:00,74.0,54.7,30.18,SW,234,2.0,4.0,51,0.00,,,0.00,Wunderground v.1.15,2013-07-14 00:30:00,
2013-07-13 20:40:00,73.9,53.0,30.18,SW,227,3.0,3.0,48,0.00,,,0.00,Wunderground v.1.15,2013-07-14 00:40:00,
2013-07-13 20:50:00,74.3,52.2,30.19,SW,235,2.0,2.0,46,0.00,,,0.00,Wunderground v.1.15,2013-07-14 00:50:00,
2013-07-13 21:00:00,74.8,50.8,30.19,WSW,252,2.0,3.0,43,0.00,,,0.00,Wunderground v.1.15,2013-07-14 01:00:00,
2013-07-13 21:10:00,74.3,50.4,30.19,SW,230,3.0,3.0,43,0.00,,,0.00,Wunderground v.1.15,2013-07-14 01:10:00,
2013-07-13 21:20:00,75.0,49.7,30.19,West,265,1.0,2.0,41,0.00,,,0.00,Wunderground v.1.15,2013-07-14 01:20:00,
2013-07-13 21:30:00,75.9,49.8,30.19,West,269,1.0,1.0,40,0.00,,,0.00,Wunderground v.1.15,2013-07-14 01:30:00,
2013-07-13 21:40:00,75.6,50.2,30.19,West,265,0.0,0.0,41,0.00,,,0.00,Wunderground v.1.15,2013-07-14 01:40:00,
2013-07-13 21:50:00,74.8,50.2,30.19,West,263,1.0,1.0,42,0.00,,,0.00,Wunderground v.1.15,2013-07-14 01:50:00,
2013-07-13 22:00:00,74.5,50.5,30.19,West,265,1.0,1.0,43,0.00,,,0.00,Wunderground v.1.15,2013-07-14 02:00:00,
2013-07-13 22:10:00,74.4,50.4,30.19,West,265,0.0,0.0,43,0.00,,,0.00,Wunderground v.1.15,2013-07-14 02:10:00,
2013-07-13 22:20:00,73.7,50.4,30.20,West,265,0.0,0.0,44,0.00,,,0.00,Wunderground v.1.15,2013-07-14 02:20:00,
2013-07-13 22:30:00,71.9,51.7,30.19,West,265,0.0,0.0,49,0.00,,,0.00,Wunderground v.1.15,2013-07-14 02:30:00,
2013-07-13 22:40:00,69.9,53.0,30.20,West,265,0.0,0.0,55,0.00,,,0.00,Wunderground v.1.15,2013-07-14 02:40:00,
2013-07-13 22:50:00,68.0,55.4,30.20,West,265,0.0,0.0,64,0.00,,,0.00,Wunderground v.1.15,2013-07-14 02:50:00,
2013-07-13 23:00:00,66.2,55.7,30.20,West,265,0.0,0.0,69,0.00,,,0.00,Wunderground v.1.15,2013-07-14 03:00:00,
2013-07-13 23:10:00,65.1,56.2,30.21,West,265,0.0,0.0,73,0.00,,,0.00,Wunderground v.1.15,2013-07-14 03:10:00,
2013-07-13 23:20:00,64.4,55.2,30.20,West,265,0.0,0.0,72,0.00,,,0.00,Wunderground v.1.15,2013-07-14 03:20:00,
2013-07-13 23:30:00,64.3,54.3,30.20,West,265,0.0,0.0,70,0.00,,,0.00,Wunderground v.1.15,2013-07-14 03:30:00,
2013-07-13 23:40:00,63.5,54.3,30.20,West,265,0.0,0.0,72,0.00,,,0.00,Wunderground v.1.15,2013-07-14 03:40:00,
2013-07-13 23:50:00,62.7,52.4,30.20,West,265,0.0,0.0,69,0.00,,,0.00,Wunderground v.1.15,2013-07-14 03:50:00,